KAIA/AIA METAR and TAF weather

Enter ICAO airport designator
Station Type Date Time Source
KAIA METAR 2021/04/13 07:53 UTC NOAA

KAIA 130753Z AUTO 29008KT 10SM CLR M04/M08 A3023 RMK AO2 SLP255 T10391083


Station Type Date Time Source
KAIA Decoded METAR 2021/04/13 07:53 UTC NOAA

ALLIANCE MUNICIPAL AIRPORT, NE, United States (KAIA) 42-03N 102-48W 1196M
Apr 13, 2021 - 03:53 AM EDT / 2021.04.13 0753 UTC
Wind: from the WNW (290 degrees) at 9 MPH (8 KT):0
Visibility: 10 mile(s):0
Sky conditions: clear
Temperature: 25.0 F (-3.9 C)
Windchill: 15 F (-9 C):1
Dew Point: 17.1 F (-8.3 C)
Relative Humidity: 71%
Pressure (altimeter): 30.23 in. Hg (1023 hPa)
ob: KAIA 130753Z AUTO 29008KT 10SM CLR M04/M08 A3023 RMK AO2 SLP255 T10391083
cycle: 8

Station Type Date Time Source
KAIA TAF 2021/04/13 06:42 UTC NOAA

TAF KAIA 130540Z 1306/1406 32012KT P6SM SKC
FM131500 32013G24KT P6SM SCT100
FM140100 01009KT P6SM SCT050

Example: see airport list